Mc Ghee Tyson Airport
KTYS : now visible

Airfield :











YOU CAN JOIN US ON...

 
LOGIN :

Register | Disclaimer

   EN    FR    IT 

 









Legend :    VFR   Marginal VFR   IFR   Intensive IFR   Very Intensive IFR
Visi :
Ceiling :
>= 8 km
>= 3000ft
5 to 8 km
1000 to 3000 ft
1500m to 5 km
500 to 1000 ft
800 to 1500m
200 to 500 ft
< 800m
< 200 ft
Symbols :   Thunderstorms  Fog  Heavy snow  Heavy precipitations  Wind > 20 kt






- Airport Elevation : 981 ft
- IATA code : TYS


KTYS - Mc Ghee Tyson

CURRENT METAR :
  • 062353Z 00000KT 10SM FEW050 SCT110 BKN250 24/09 A2999 RMK AO2 SLP149 T02440089 10267 20239 57004

EXPIRED METARs :
  • 062253Z 22004KT 10SM FEW050 FEW110 BKN250 25/09 A2999 RMK AO2 SLP150 T02500094
  • 062153Z 27005KT 10SM SCT050 SCT110 BKN250 26/08 A3000 RMK AO2 SLP152 T02610083

TAF KTYS
Valid from the 07 at 00:00 until the 08 at 00:00 UTC


062320Z 0700/0724 22004KT P6SM BKN250
FM071000 22004KT P6SM SCT040 SCT080
FM071500 23010KT P6SM VCSH BKN050
PROB30 0718/0724 3SM -TSRA BKN035CB



MET'MAP, your aeronautical weather chart ! - Copyright ORBIFLY December 2007 - Disclaimer

ORBIFLY MET'MAP TEAM :

Programming & Development : Alexandra Zaïnal
Concept & original design : Baudouin d'Aumeries
Assistance for programming : Marc-Olivier Méhu
Technical & hardware support : Manuel Goepfert

Contact : metmap@orbifly.com




SOURCES & CREDITS :

   NOAA       Earth
Advisory